createdAt,value
2023-10-20T00:00:16.769Z,100.00
2023-10-20T00:03:19.618Z,100.00
2023-10-20T00:06:22.103Z,100.00
2023-10-20T00:09:26.135Z,100.00
2023-10-20T00:12:29.426Z,100.00
2023-10-20T00:15:31.838Z,100.00
2023-10-20T00:18:34.461Z,100.00
2023-10-20T00:21:36.879Z,100.00
2023-10-20T00:24:38.705Z,100.00
2023-10-20T00:27:46.556Z,100.00
2023-10-20T00:30:48.420Z,100.00
2023-10-20T00:33:51.518Z,100.00
2023-10-20T00:36:53.413Z,100.00
2023-10-20T00:39:55.496Z,100.00
2023-10-20T00:42:58.717Z,100.00
2023-10-20T00:46:00.698Z,100.00
2023-10-20T00:49:04.012Z,100.00
2023-10-20T00:52:07.836Z,100.00
2023-10-20T00:55:12.792Z,100.00
2023-10-20T00:58:16.100Z,100.00
2023-10-20T01:01:18.436Z,100.00
2023-10-20T01:04:20.731Z,100.00
2023-10-20T01:07:22.524Z,100.00
2023-10-20T01:10:25.635Z,100.00
2023-10-20T01:13:28.837Z,100.00
2023-10-20T01:16:30.700Z,100.00
2023-10-20T01:19:33.616Z,100.00
2023-10-20T01:22:35.683Z,100.00
2023-10-20T01:25:39.708Z,100.00
2023-10-20T01:28:41.617Z,100.00
2023-10-20T01:31:43.431Z,100.00
2023-10-20T01:34:45.589Z,100.00
2023-10-20T01:37:47.461Z,100.00
2023-10-20T01:40:51.618Z,100.00
2023-10-20T01:43:53.491Z,100.00
2023-10-20T01:46:55.897Z,100.00
2023-10-20T01:49:58.323Z,100.00
2023-10-20T01:53:00.211Z,100.00
2023-10-20T01:56:03.783Z,100.00
2023-10-20T01:59:05.748Z,100.00
2023-10-20T02:02:07.716Z,100.00
2023-10-20T02:05:10.702Z,100.00
2023-10-20T02:08:13.493Z,100.00
2023-10-20T02:11:17.677Z,100.00
2023-10-20T02:14:19.659Z,100.00
2023-10-20T02:17:22.226Z,100.00
2023-10-20T02:20:26.415Z,100.00
2023-10-20T02:23:31.133Z,100.00
2023-10-20T02:26:34.531Z,100.00
2023-10-20T02:29:36.598Z,100.00
2023-10-20T02:32:39.325Z,100.00
2023-10-20T02:35:41.382Z,100.00
2023-10-20T02:38:44.271Z,100.00
2023-10-20T02:41:47.657Z,100.00
2023-10-20T02:44:50.237Z,100.00
2023-10-20T02:47:52.220Z,100.00
2023-10-20T02:50:55.164Z,100.00
2023-10-20T02:53:57.060Z,100.00
2023-10-20T02:57:00.309Z,100.00
2023-10-20T03:00:05.319Z,100.00
2023-10-20T03:03:07.377Z,100.00
2023-10-20T03:06:10.114Z,100.00
2023-10-20T03:09:14.739Z,100.00
2023-10-20T03:12:18.466Z,100.00
2023-10-20T03:15:20.951Z,100.00
2023-10-20T03:18:23.013Z,100.00
2023-10-20T03:21:25.125Z,100.00
2023-10-20T03:24:26.954Z,100.00
2023-10-20T03:27:30.985Z,100.00
2023-10-20T03:30:37.958Z,100.00
2023-10-20T03:33:39.984Z,100.00
2023-10-20T03:36:41.843Z,100.00
2023-10-20T03:39:44.842Z,100.00
2023-10-20T03:42:49.694Z,100.00
2023-10-20T03:45:53.412Z,100.00
2023-10-20T03:48:55.946Z,100.00
2023-10-20T03:51:57.935Z,100.00
2023-10-20T03:55:01.592Z,100.00
2023-10-20T03:58:05.402Z,100.00
2023-10-20T04:01:09.172Z,100.00
2023-10-20T04:04:13.076Z,100.00
2023-10-20T04:07:16.280Z,100.00
2023-10-20T04:10:21.961Z,100.00
2023-10-20T04:13:25.494Z,100.00
2023-10-20T04:16:30.257Z,100.00
2023-10-20T04:19:33.974Z,100.00
2023-10-20T04:22:39.477Z,100.00
2023-10-20T04:25:45.821Z,100.00
2023-10-20T04:28:52.371Z,100.00
2023-10-20T04:32:13.491Z,100.00
2023-10-20T04:35:34.460Z,100.00
2023-10-20T04:38:54.940Z,100.00
2023-10-20T04:41:57.775Z,100.00
2023-10-20T04:45:19.742Z,100.00
2023-10-20T04:48:31.068Z,100.00
2023-10-20T04:51:52.522Z,100.00
2023-10-20T04:55:00.001Z,100.00
2023-10-20T04:58:19.381Z,100.00
2023-10-20T05:01:42.185Z,100.00
2023-10-20T05:04:47.611Z,100.00
2023-10-20T05:07:51.928Z,100.00
2023-10-20T05:10:55.421Z,100.00
2023-10-20T05:13:57.623Z,100.00
2023-10-20T05:17:00.972Z,100.00
2023-10-20T05:20:06.483Z,100.00
2023-10-20T05:23:09.114Z,100.00
2023-10-20T05:26:11.736Z,100.00
2023-10-20T05:29:15.604Z,100.00
2023-10-20T05:32:19.113Z,100.00
2023-10-20T05:35:21.440Z,100.00
2023-10-20T05:38:23.755Z,100.00
2023-10-20T05:41:25.769Z,100.00
2023-10-20T05:44:31.680Z,100.00
2023-10-20T05:47:35.015Z,100.00
2023-10-20T05:50:37.420Z,100.00
2023-10-20T05:53:39.735Z,100.00
2023-10-20T05:56:41.735Z,100.00
2023-10-20T05:59:44.333Z,100.00
2023-10-20T06:02:47.982Z,100.00
2023-10-20T06:05:50.760Z,100.00
2023-10-20T06:08:52.678Z,100.00
2023-10-20T06:11:57.914Z,100.00
2023-10-20T06:14:59.816Z,100.00
2023-10-20T06:18:05.676Z,100.00
2023-10-20T06:21:11.742Z,100.00
2023-10-20T06:24:15.517Z,100.00
2023-10-20T06:27:17.335Z,100.00
2023-10-20T06:30:24.858Z,100.00
2023-10-20T06:33:38.505Z,100.00
2023-10-20T06:36:48.156Z,100.00
2023-10-20T06:39:50.729Z,100.00
2023-10-20T06:42:52.672Z,100.00
2023-10-20T06:45:57.882Z,100.00
2023-10-20T06:49:01.168Z,100.00
2023-10-20T06:52:05.130Z,100.00
2023-10-20T06:55:42.654Z,100.00
2023-10-20T06:58:31.585Z,100.00
2023-10-20T07:01:34.454Z,100.00
2023-10-20T07:04:38.637Z,100.00
2023-10-20T07:07:41.669Z,100.00
2023-10-20T07:10:44.627Z,100.00
2023-10-20T07:13:46.535Z,100.00
2023-10-20T07:16:48.548Z,100.00
2023-10-20T07:19:51.893Z,100.00
2023-10-20T07:22:54.482Z,100.00
2023-10-20T07:25:56.368Z,100.00
2023-10-20T07:28:58.265Z,100.00
2023-10-20T07:32:00.152Z,100.00
2023-10-20T07:35:04.450Z,100.00
2023-10-20T07:38:06.714Z,100.00
2023-10-20T07:41:11.199Z,100.00
2023-10-20T07:44:13.942Z,100.00
2023-10-20T07:47:15.914Z,100.00
2023-10-20T07:50:20.624Z,100.00
2023-10-20T07:53:22.665Z,100.00
2023-10-20T07:56:26.385Z,100.00
2023-10-20T07:59:30.165Z,100.00
2023-10-20T08:02:32.646Z,100.00
2023-10-20T08:05:37.152Z,100.00
2023-10-20T08:08:39.390Z,100.00
2023-10-20T08:11:43.295Z,100.00
2023-10-20T08:14:45.388Z,100.00
2023-10-20T08:17:47.532Z,100.00
2023-10-20T08:20:51.796Z,100.00
2023-10-20T08:23:53.803Z,100.00
2023-10-20T08:26:56.368Z,100.00
2023-10-20T08:29:59.155Z,100.00
2023-10-20T08:33:01.321Z,100.00
2023-10-20T08:36:16.269Z,100.00
2023-10-20T08:39:21.843Z,100.00
2023-10-20T08:42:23.476Z,100.00
2023-10-20T08:45:28.082Z,100.00
2023-10-20T08:48:30.031Z,100.00
2023-10-20T08:51:34.652Z,100.00
2023-10-20T08:54:36.558Z,100.00
2023-10-20T08:57:39.124Z,100.00
2023-10-20T09:00:47.552Z,100.00
2023-10-20T09:04:02.228Z,100.00
2023-10-20T09:07:15.408Z,100.00
2023-10-20T09:10:17.536Z,100.00
2023-10-20T09:13:19.355Z,100.00
2023-10-20T09:16:21.312Z,100.00
2023-10-20T09:19:24.163Z,100.00
2023-10-20T09:22:30.772Z,100.00
2023-10-20T09:25:33.209Z,100.00
2023-10-20T09:28:37.052Z,100.00
2023-10-20T09:31:40.106Z,100.00
2023-10-20T09:34:42.222Z,100.00
2023-10-20T09:37:52.300Z,100.00
2023-10-20T09:41:09.755Z,100.00
2023-10-20T09:44:21.517Z,100.00
2023-10-20T09:47:28.339Z,100.00
2023-10-20T09:50:33.069Z,100.00
2023-10-20T09:53:37.050Z,100.00
2023-10-20T09:56:40.364Z,100.00
2023-10-20T09:59:43.333Z,100.00
2023-10-20T10:02:46.136Z,100.00
2023-10-20T10:05:48.208Z,100.00
2023-10-20T10:08:54.377Z,100.00
2023-10-20T10:11:56.558Z,100.00
2023-10-20T10:15:00.513Z,93.81
2023-10-20T10:18:10.389Z,97.17
2023-10-20T10:21:24.451Z,97.12
2023-10-20T10:24:27.798Z,97.18
2023-10-20T10:27:31.373Z,97.39
2023-10-20T10:30:33.500Z,95.60
2023-10-20T10:33:36.421Z,96.55
2023-10-20T10:36:51.164Z,90.78
2023-10-20T10:39:55.474Z,90.04
2023-10-20T10:42:58.504Z,88.02
2023-10-20T10:46:00.353Z,86.70
2023-10-20T10:49:07.248Z,88.81
2023-10-20T10:52:09.097Z,86.44
2023-10-20T10:55:14.725Z,90.61
2023-10-20T10:58:16.866Z,85.13
2023-10-20T11:01:18.869Z,87.53
2023-10-20T11:04:21.334Z,89.57
2023-10-20T11:07:23.850Z,92.15
2023-10-20T11:10:28.668Z,94.17
2023-10-20T11:13:30.973Z,92.39
2023-10-20T11:16:35.133Z,91.73
2023-10-20T11:19:38.703Z,89.08
2023-10-20T11:22:40.978Z,90.17
2023-10-20T11:25:46.462Z,91.47
2023-10-20T11:28:48.359Z,88.04
2023-10-20T11:31:50.257Z,84.39
2023-10-20T11:34:52.986Z,84.56
2023-10-20T11:37:55.717Z,85.04
2023-10-20T11:41:00.321Z,81.24
2023-10-20T11:44:02.146Z,79.94
2023-10-20T11:47:04.884Z,78.67
2023-10-20T11:50:09.956Z,77.27
2023-10-20T11:53:13.842Z,76.00
2023-10-20T11:56:18.184Z,71.10
2023-10-20T11:59:20.088Z,71.78
2023-10-20T12:02:24.310Z,74.26
2023-10-20T12:05:27.115Z,73.55
2023-10-20T12:08:30.767Z,74.18
2023-10-20T12:11:34.778Z,76.17
2023-10-20T12:14:37.038Z,74.43
2023-10-20T12:17:42.437Z,73.61
2023-10-20T12:20:44.828Z,73.35
2023-10-20T12:23:46.998Z,68.69
2023-10-20T12:26:51.245Z,75.06
2023-10-20T12:29:53.249Z,77.54
2023-10-20T12:32:55.873Z,76.37
2023-10-20T12:35:58.713Z,75.74
2023-10-20T12:39:01.578Z,77.04
2023-10-20T12:42:06.162Z,75.54
2023-10-20T12:45:10.522Z,72.70
2023-10-20T12:48:12.644Z,75.78
2023-10-20T12:51:14.862Z,73.87
2023-10-20T12:54:16.794Z,64.90
2023-10-20T12:57:20.132Z,68.80
2023-10-20T13:00:22.311Z,59.39
2023-10-20T13:03:25.577Z,56.49
2023-10-20T13:06:27.593Z,53.99
2023-10-20T13:09:29.688Z,54.68
2023-10-20T13:12:33.151Z,55.64
2023-10-20T13:15:35.029Z,57.18
2023-10-20T13:18:37.642Z,57.14
2023-10-20T13:21:39.520Z,58.67
2023-10-20T13:24:41.771Z,58.61
2023-10-20T13:27:45.059Z,57.99
2023-10-20T13:31:07.582Z,60.82
2023-10-20T13:34:09.891Z,62.33
2023-10-20T13:37:11.868Z,62.31
2023-10-20T13:40:14.664Z,62.33
2023-10-20T13:43:17.949Z,62.17
2023-10-20T13:46:19.895Z,64.48
2023-10-20T13:49:22.625Z,64.51
2023-10-20T13:52:24.664Z,64.45
2023-10-20T13:55:27.040Z,65.51
2023-10-20T13:58:30.300Z,64.82
2023-10-20T14:01:32.599Z,64.28
2023-10-20T14:04:34.775Z,64.56
2023-10-20T14:07:37.848Z,61.66
2023-10-20T14:10:39.785Z,63.31
2023-10-20T14:13:43.198Z,62.21
2023-10-20T14:16:45.144Z,61.44
2023-10-20T14:19:47.545Z,63.25
2023-10-20T14:22:49.362Z,59.29
2023-10-20T14:25:57.246Z,58.81
2023-10-20T14:29:00.576Z,58.56
2023-10-20T14:32:02.566Z,57.76
2023-10-20T14:35:07.693Z,58.99
2023-10-20T14:38:09.583Z,58.44
2023-10-20T14:41:11.636Z,57.42
2023-10-20T14:44:14.949Z,57.77
2023-10-20T14:47:17.423Z,56.79
2023-10-20T14:50:19.320Z,56.55
2023-10-20T14:53:22.024Z,57.68
2023-10-20T14:56:23.934Z,57.41
2023-10-20T14:59:27.891Z,57.55
2023-10-20T15:02:29.813Z,57.18
2023-10-20T15:05:32.428Z,57.00
2023-10-20T15:08:34.741Z,57.78
2023-10-20T15:11:37.500Z,58.22
2023-10-20T15:14:40.797Z,57.42
2023-10-20T15:17:42.810Z,57.21
2023-10-20T15:20:46.017Z,56.42
2023-10-20T15:23:48.104Z,56.60
2023-10-20T15:26:51.495Z,56.26
2023-10-20T15:29:54.972Z,56.22
2023-10-20T15:32:57.097Z,56.23
2023-10-20T15:35:59.365Z,55.87
2023-10-20T15:39:01.308Z,55.63
2023-10-20T15:42:04.375Z,56.10
2023-10-20T15:45:11.504Z,55.28
2023-10-20T15:48:14.435Z,54.51
2023-10-20T15:51:18.796Z,54.64
2023-10-20T15:54:21.202Z,54.68
2023-10-20T15:57:23.444Z,53.13
2023-10-20T16:00:26.671Z,55.26
2023-10-20T16:03:29.668Z,54.13
2023-10-20T16:06:31.761Z,55.29
2023-10-20T16:09:33.975Z,53.85
2023-10-20T16:12:36.289Z,53.60
2023-10-20T16:15:39.675Z,56.37
2023-10-20T16:18:41.785Z,56.33
2023-10-20T16:21:44.450Z,59.39
2023-10-20T16:24:47.401Z,58.22
2023-10-20T16:27:50.380Z,59.02
2023-10-20T16:30:53.807Z,60.13
2023-10-20T16:33:56.194Z,60.32
2023-10-20T16:36:58.421Z,60.64
2023-10-20T16:40:03.449Z,58.19
2023-10-20T16:43:08.483Z,62.75
2023-10-20T16:46:15.451Z,63.06
2023-10-20T16:49:17.484Z,64.01
2023-10-20T16:52:19.879Z,64.17
2023-10-20T16:55:22.277Z,61.88
2023-10-20T16:58:28.025Z,60.31
2023-10-20T17:01:33.213Z,58.25
2023-10-20T17:04:36.056Z,56.64
2023-10-20T17:07:38.928Z,53.75
2023-10-20T17:10:41.931Z,52.60
2023-10-20T17:13:44.263Z,52.96
2023-10-20T17:16:48.375Z,51.98
2023-10-20T17:19:50.306Z,52.17
2023-10-20T17:22:52.910Z,51.50
2023-10-20T17:25:55.926Z,51.81
2023-10-20T17:28:58.753Z,51.09
2023-10-20T17:32:02.946Z,50.51
2023-10-20T17:35:07.510Z,51.96
2023-10-20T17:38:11.312Z,51.31
2023-10-20T17:41:14.192Z,50.89
2023-10-20T17:44:17.688Z,51.24
2023-10-20T17:47:21.851Z,50.98
2023-10-20T17:50:24.621Z,51.32
2023-10-20T17:53:28.326Z,50.34
2023-10-20T17:56:31.188Z,51.21
2023-10-20T17:59:34.449Z,50.65
2023-10-20T18:02:38.439Z,51.76
2023-10-20T18:05:41.415Z,51.85
2023-10-20T18:08:45.924Z,51.06
2023-10-20T18:11:50.727Z,51.98
2023-10-20T18:14:53.910Z,52.25
2023-10-20T18:17:58.208Z,51.85
2023-10-20T18:21:02.721Z,51.35
2023-10-20T18:24:10.997Z,52.07
2023-10-20T18:27:14.049Z,52.15
2023-10-20T18:30:16.639Z,52.62
2023-10-20T18:33:22.028Z,51.03
2023-10-20T18:36:25.494Z,52.02
2023-10-20T18:39:29.888Z,52.14
2023-10-20T18:42:32.927Z,51.19
2023-10-20T18:45:36.809Z,51.46
2023-10-20T18:48:42.023Z,52.08
2023-10-20T18:51:45.407Z,53.09
2023-10-20T18:54:48.961Z,52.10
2023-10-20T18:57:51.989Z,51.77
2023-10-20T19:00:58.788Z,52.27
2023-10-20T19:04:08.749Z,52.09
2023-10-20T19:07:13.522Z,52.62
2023-10-20T19:10:18.895Z,51.98
2023-10-20T19:13:22.694Z,53.33
2023-10-20T19:16:26.664Z,52.73
2023-10-20T19:19:32.768Z,54.13
2023-10-20T19:22:36.461Z,52.56
2023-10-20T19:25:41.960Z,53.84
2023-10-20T19:28:45.152Z,53.78
2023-10-20T19:31:47.938Z,54.41
2023-10-20T19:34:52.196Z,55.77
2023-10-20T19:37:54.366Z,54.68
2023-10-20T19:40:58.116Z,54.94
2023-10-20T19:44:00.352Z,55.68
2023-10-20T19:47:04.013Z,56.72
2023-10-20T19:50:09.572Z,57.49
2023-10-20T19:53:13.203Z,58.01
2023-10-20T19:56:15.475Z,59.89
2023-10-20T19:59:19.603Z,61.14
2023-10-20T20:02:21.889Z,62.27
2023-10-20T20:05:29.199Z,63.08
2023-10-20T20:08:34.655Z,62.83
2023-10-20T20:11:37.887Z,63.76
2023-10-20T20:14:40.837Z,64.40
2023-10-20T20:17:43.321Z,64.88
2023-10-20T20:20:47.390Z,65.37
2023-10-20T20:23:50.668Z,64.90
2023-10-20T20:26:54.631Z,66.14
2023-10-20T20:29:57.086Z,67.07
2023-10-20T20:32:59.826Z,67.00
2023-10-20T20:36:03.877Z,67.20
2023-10-20T20:39:06.798Z,67.76
2023-10-20T20:42:08.730Z,68.46
2023-10-20T20:45:11.843Z,68.55
2023-10-20T20:48:13.781Z,69.47
2023-10-20T20:51:18.063Z,68.15
2023-10-20T20:54:19.911Z,66.92
2023-10-20T20:57:21.790Z,67.00
2023-10-20T21:00:24.594Z,65.89
2023-10-20T21:03:26.603Z,66.89
2023-10-20T21:06:29.889Z,68.30
2023-10-20T21:09:32.849Z,69.71
2023-10-20T21:12:34.741Z,70.90
2023-10-20T21:15:37.968Z,70.30
2023-10-20T21:18:40.984Z,70.10
2023-10-20T21:21:44.312Z,69.65
2023-10-20T21:24:46.219Z,69.41
2023-10-20T21:27:48.440Z,68.32
2023-10-20T21:30:50.338Z,67.75
2023-10-20T21:33:52.429Z,67.76
2023-10-20T21:36:56.515Z,67.65
2023-10-20T21:39:58.453Z,68.07
2023-10-20T21:43:00.441Z,69.02
2023-10-20T21:46:02.456Z,70.39
2023-10-20T21:49:04.597Z,71.09
2023-10-20T21:52:07.856Z,71.93
2023-10-20T21:55:10.577Z,72.36
2023-10-20T21:58:12.435Z,73.17
2023-10-20T22:01:14.792Z,74.23
2023-10-20T22:04:16.789Z,75.72
2023-10-20T22:07:20.742Z,76.61
2023-10-20T22:10:22.723Z,76.61
2023-10-20T22:13:24.710Z,77.15
2023-10-20T22:16:26.569Z,75.95
2023-10-20T22:19:28.771Z,76.30
2023-10-20T22:22:32.651Z,75.03
2023-10-20T22:25:35.433Z,76.07
2023-10-20T22:28:37.332Z,75.52
2023-10-20T22:31:39.400Z,74.27
2023-10-20T22:34:41.286Z,75.60
2023-10-20T22:37:44.661Z,75.60
2023-10-20T22:40:46.759Z,76.36
2023-10-20T22:43:48.587Z,76.30
2023-10-20T22:46:51.747Z,73.81
2023-10-20T22:49:53.739Z,74.49
2023-10-20T22:52:57.677Z,72.00
2023-10-20T22:55:59.502Z,71.34
2023-10-20T22:59:01.382Z,70.12
2023-10-20T23:02:03.631Z,69.82
2023-10-20T23:05:07.831Z,69.89
2023-10-20T23:08:11.604Z,70.48
2023-10-20T23:11:14.101Z,70.12
2023-10-20T23:14:16.392Z,70.21
2023-10-20T23:17:19.289Z,69.85
2023-10-20T23:20:21.170Z,69.89
2023-10-20T23:23:24.706Z,71.11
2023-10-20T23:26:26.631Z,73.07
2023-10-20T23:29:28.754Z,74.27
2023-10-20T23:32:31.348Z,75.28
2023-10-20T23:35:33.341Z,75.22
2023-10-20T23:38:37.651Z,74.96
2023-10-20T23:41:39.675Z,77.48
2023-10-20T23:44:41.594Z,76.45
2023-10-20T23:47:44.244Z,77.42
2023-10-20T23:50:47.192Z,75.85
2023-10-20T23:53:50.714Z,78.02
2023-10-20T23:56:52.576Z,75.07
2023-10-20T23:59:54.525Z,72.80
